Time;durP1;ratioP1;P1;durP2;ratioP2;P2;SDS_P1;SDS_P2;PMS_P1;PMS_P2;Temp;Humidity;BMP_temperature;BMP_pressure;BME280_temperature;BME280_humidity;BME280_pressure;Samples;Min_cycle;Max_cycle;Signal;HPM_P1;HPM_P2
2022/02/08 00:00:49;;;;;;;38.42;21.60;;;0.90;99.90;;;;;;5016940;28;20450;-80
2022/02/08 00:03:18;;;;;;;42.05;26.05;;;0.80;99.90;;;;;;4998610;28;20022;-80
2022/02/08 00:05:51;;;;;;;41.63;25.48;;;0.80;99.90;;;;;;5016969;28;20427;-80
2022/02/08 00:08:17;;;;;;;39.13;26.15;;;0.90;99.90;;;;;;5015821;28;20026;-81
2022/02/08 00:10:43;;;;;;;39.63;23.35;;;0.90;99.90;;;;;;5014121;28;20161;-81
2022/02/08 00:13:08;;;;;;;40.63;26.95;;;0.90;99.90;;;;;;5014259;28;20014;-81
2022/02/08 00:15:34;;;;;;;42.20;26.50;;;1.00;99.90;;;;;;5014176;28;20037;-81
2022/02/08 00:18:00;;;;;;;36.10;23.00;;;1.00;99.90;;;;;;5013632;28;20018;-80
2022/02/08 00:20:26;;;;;;;39.50;26.50;;;1.00;99.90;;;;;;4995849;28;20029;-79
2022/02/08 00:22:52;;;;;;;40.22;24.05;;;1.00;99.90;;;;;;5013703;28;20029;-79
2022/02/08 00:25:17;;;;;;;36.80;21.73;;;1.00;99.90;;;;;;5014000;28;20018;-78
2022/02/08 00:27:43;;;;;;;41.67;23.50;;;1.00;99.90;;;;;;5013341;28;20036;-79
2022/02/08 00:30:09;;;;;;;37.20;22.45;;;1.00;99.90;;;;;;4995626;28;20034;-79
2022/02/08 00:32:35;;;;;;;41.90;26.10;;;1.00;99.90;;;;;;5013010;28;20054;-80
2022/02/08 00:35:01;;;;;;;41.55;25.65;;;1.00;99.90;;;;;;5013282;28;20109;-80
2022/02/08 00:37:27;;;;;;;37.95;24.40;;;1.00;99.90;;;;;;5013346;28;20041;-78
2022/02/08 00:39:52;;;;;;;40.75;25.50;;;1.10;99.90;;;;;;5013831;28;20030;-78
2022/02/08 00:42:20;;;;;;;37.72;23.90;;;1.10;99.90;;;;;;5013826;28;20021;-81
2022/02/08 00:44:51;;;;;;;36.72;25.52;;;1.10;99.90;;;;;;4995998;28;20026;-77
2022/02/08 00:49:44;;;;;;;36.40;23.35;;;1.30;99.90;;;;;;5012968;28;20037;-80
2022/02/08 00:52:16;;;;;;;45.85;26.25;;;1.30;99.90;;;;;;5013151;28;20026;-80
2022/02/08 00:54:47;;;;;;;34.47;23.70;;;1.30;99.90;;;;;;5018999;28;20028;-79
2022/02/08 00:57:14;;;;;;;41.30;24.75;;;1.40;99.90;;;;;;5032813;28;20028;-80
2022/02/08 00:59:40;;;;;;;38.13;24.23;;;1.40;99.90;;;;;;5034519;28;20022;-78
2022/02/08 01:02:07;;;;;;;41.03;28.60;;;1.30;99.90;;;;;;5023117;28;20022;-79
2022/02/08 01:04:34;;;;;;;38.72;24.23;;;1.40;99.90;;;;;;5013031;28;20029;-80
2022/02/08 01:07:01;;;;;;;40.53;24.83;;;1.40;99.90;;;;;;5013131;28;20445;-80
2022/02/08 01:09:41;;;;;;;39.78;24.05;;;1.40;99.90;;;;;;5012971;28;20030;-80
2022/02/08 01:12:07;;;;;;;41.78;26.15;;;1.40;99.90;;;;;;4995382;28;20030;-81
2022/02/08 01:14:38;;;;;;;41.42;24.88;;;1.40;99.90;;;;;;5013131;28;20104;-79
2022/02/08 01:17:06;;;;;;;41.35;24.55;;;1.40;99.90;;;;;;5012821;28;20021;-79
2022/02/08 01:19:33;;;;;;;38.90;23.50;;;1.40;99.90;;;;;;5012538;28;20054;-79
2022/02/08 01:21:59;;;;;;;32.30;19.48;;;1.40;99.90;;;;;;4995287;28;20391;-79
2022/02/08 01:24:25;;;;;;;31.50;21.20;;;1.40;99.90;;;;;;5012645;28;20099;-79
2022/02/08 01:27:00;;;;;;;34.42;20.80;;;1.40;99.90;;;;;;4994968;28;20659;-79
2022/02/08 01:32:35;;;;;;;41.33;22.52;;;1.40;99.90;;;;;;5014157;28;20056;-78
2022/02/08 01:48:51;;;;;;;40.70;23.20;;;1.00;99.90;;;;;;5032581;28;20110;-79
2022/02/08 01:51:17;;;;;;;36.80;23.17;;;1.00;99.90;;;;;;5014522;28;20045;-79
2022/02/08 01:53:43;;;;;;;34.42;21.45;;;1.10;99.90;;;;;;5018272;28;20021;-79
2022/02/08 01:56:09;;;;;;;35.47;22.38;;;1.20;99.90;;;;;;5018069;28;20064;-79
2022/02/08 01:58:36;;;;;;;35.67;24.40;;;1.20;99.90;;;;;;5018624;28;20033;-79
2022/02/08 02:01:03;;;;;;;39.15;21.80;;;1.40;99.90;;;;;;5026801;28;20028;-79
2022/02/08 02:03:28;;;;;;;31.90;19.63;;;1.40;99.90;;;;;;5034431;28;20026;-78
2022/02/08 02:05:54;;;;;;;33.08;20.15;;;1.50;99.90;;;;;;5019287;28;20267;-79
2022/02/08 02:08:20;;;;;;;38.40;24.00;;;1.50;99.90;;;;;;5000170;28;20029;-78
2022/02/08 02:10:46;;;;;;;40.28;23.25;;;1.50;99.90;;;;;;5017895;28;20042;-79
2022/02/08 02:13:34;;;;;;;35.38;22.38;;;1.60;99.90;;;;;;4999344;28;20112;-79
2022/02/08 02:16:03;;;;;;;33.40;20.88;;;1.60;99.90;;;;;;5016647;28;20054;-79
2022/02/08 02:18:29;;;;;;;38.20;22.52;;;1.60;99.90;;;;;;5016562;28;20028;-77
2022/02/08 02:20:55;;;;;;;42.00;24.42;;;1.70;99.90;;;;;;5016373;28;20125;-79
2022/02/08 02:23:21;;;;;;;40.15;24.20;;;1.70;99.90;;;;;;5015999;28;20032;-78
2022/02/08 02:25:46;;;;;;;42.25;26.13;;;1.70;99.90;;;;;;4998489;28;20399;-78
2022/02/08 02:28:12;;;;;;;44.28;24.95;;;1.70;99.90;;;;;;5016043;28;20537;-79
2022/02/08 02:30:38;;;;;;;38.40;23.67;;;1.70;99.90;;;;;;5016925;28;20041;-78
2022/02/08 02:33:06;;;;;;;46.17;25.67;;;1.70;99.90;;;;;;5035124;28;20064;-78
2022/02/08 02:35:32;;;;;;;41.63;22.80;;;1.70;99.90;;;;;;5035400;28;20017;-78
2022/02/08 02:38:01;;;;;;;36.00;21.67;;;1.70;99.90;;;;;;5035018;28;20386;-78
2022/02/08 02:40:30;;;;;;;41.13;23.05;;;1.80;99.90;;;;;;5035129;28;20029;-78
2022/02/08 02:42:56;;;;;;;36.72;23.70;;;1.80;99.90;;;;;;5034874;28;20394;-77
2022/02/08 02:45:22;;;;;;;37.78;24.15;;;1.80;99.90;;;;;;5034032;28;20025;-78
2022/02/08 02:47:51;;;;;;;34.65;22.30;;;1.80;99.90;;;;;;5035412;28;20036;-79
2022/02/08 02:50:17;;;;;;;39.53;22.77;;;1.90;99.90;;;;;;5043610;28;20033;-77
2022/02/08 02:52:43;;;;;;;40.78;22.92;;;1.90;99.90;;;;;;5043861;28;20044;-78
2022/02/08 02:55:09;;;;;;;37.03;23.23;;;1.90;99.90;;;;;;5035315;28;20026;-79
2022/02/08 02:57:35;;;;;;;40.15;23.73;;;1.90;99.90;;;;;;5017240;28;20114;-77
2022/02/08 03:00:10;;;;;;;40.28;23.98;;;1.90;99.90;;;;;;5034953;28;20053;-78
2022/02/08 03:06:00;;;;;;;35.08;21.98;;;1.90;99.90;;;;;;5027131;28;20047;-79
2022/02/08 03:18:47;;;;;;;37.70;21.67;;;1.90;99.90;;;;;;5014637;28;20029;-80
2022/02/08 03:21:13;;;;;;;30.83;20.95;;;1.90;99.90;;;;;;4997032;28;20025;-80
2022/02/08 03:23:39;;;;;;;46.00;24.92;;;1.90;99.90;;;;;;5014592;28;20522;-79
2022/02/08 03:26:05;;;;;;;39.33;22.40;;;1.90;99.90;;;;;;4996950;28;20872;-78
2022/02/08 03:28:31;;;;;;;31.70;18.27;;;1.90;99.90;;;;;;5014134;28;20113;-78
2022/02/08 03:30:57;;;;;;;35.10;20.38;;;1.90;99.90;;;;;;5014030;28;20061;-78
2022/02/08 03:33:25;;;;;;;33.80;18.95;;;1.90;99.90;;;;;;5014266;28;20054;-78
2022/02/08 03:35:54;;;;;;;33.67;18.75;;;2.00;99.90;;;;;;4996610;28;20026;-78
2022/02/08 03:38:26;;;;;;;28.40;20.17;;;2.00;99.90;;;;;;4996867;28;20025;-77
2022/02/08 03:40:53;;;;;;;32.00;18.55;;;2.00;99.90;;;;;;5014401;28;20484;-80
2022/02/08 03:45:53;;;;;;;30.63;17.88;;;2.00;99.90;;;;;;5014319;28;20054;-78
2022/02/08 03:48:22;;;;;;;27.65;17.80;;;2.00;99.90;;;;;;5014114;28;20100;-79
2022/02/08 03:50:57;;;;;;;30.50;18.95;;;2.00;99.90;;;;;;5014084;28;20030;-78
2022/02/08 03:53:24;;;;;;;32.85;19.88;;;2.00;99.90;;;;;;5014125;28;20450;-79
2022/02/08 03:55:51;;;;;;;36.60;19.75;;;2.00;99.90;;;;;;5029568;28;20029;-78
2022/02/08 03:58:17;;;;;;;29.05;18.52;;;2.00;99.90;;;;;;5033710;28;20029;-79
2022/02/08 04:03:11;;;;;;;26.23;16.73;;;2.00;99.90;;;;;;5033642;28;20360;-80
2022/02/08 04:05:42;;;;;;;26.33;15.82;;;2.00;99.90;;;;;;5033577;28;20032;-79
2022/02/08 04:08:11;;;;;;;28.70;16.50;;;2.00;99.90;;;;;;5016925;28;20029;-79
2022/02/08 04:10:37;;;;;;;25.05;16.75;;;2.00;99.90;;;;;;5004498;28;20072;-76
2022/02/08 04:18:37;;;;;;;25.30;17.10;;;2.00;99.90;;;;;;5014421;28;20018;-78
2022/02/08 04:37:45;;;;;;;24.63;16.40;;;1.90;99.90;;;;;;5014063;28;20244;-79
2022/02/08 04:40:36;;;;;;;28.08;16.45;;;1.90;99.90;;;;;;5016257;28;20161;-79
2022/02/08 04:50:22;;;;;;;22.55;16.05;;;2.00;99.90;;;;;;5013312;28;20041;-79
2022/02/08 04:52:49;;;;;;;24.45;15.27;;;2.00;99.90;;;;;;5013128;28;20054;-80
2022/02/08 05:00:25;;;;;;;26.90;15.10;;;2.10;99.90;;;;;;5032601;28;20029;-80
2022/02/08 05:35:49;;;;;;;21.77;11.57;;;2.00;99.90;;;;;;5012200;28;20502;-79
2022/02/08 05:48:44;;;;;;;10.10;6.57;;;2.00;99.90;;;;;;5011906;28;20439;-79
2022/02/08 05:51:17;;;;;;;10.70;6.18;;;2.00;99.90;;;;;;5011770;28;20128;-79
2022/02/08 05:53:45;;;;;;;13.15;7.38;;;2.00;99.90;;;;;;4994334;28;20426;-80
2022/02/08 05:56:10;;;;;;;;;;;2.00;99.90;;;;;;4996074;28;20606;-82
2022/02/08 05:58:37;;;;;;;13.45;7.03;;;1.90;99.90;;;;;;5011866;28;19921;-82
2022/02/08 06:01:03;;;;;;;14.90;8.68;;;1.90;99.90;;;;;;5014242;28;20447;-81
2022/02/08 06:03:30;;;;;;;15.48;8.73;;;2.00;99.70;;;;;;5031921;28;20044;-81
2022/02/08 06:05:57;;;;;;;11.85;7.95;;;2.00;99.60;;;;;;5031449;28;20072;-83
2022/02/08 06:08:23;;;;;;;12.35;7.35;;;2.10;99.70;;;;;;5030519;28;20494;-82
2022/02/08 06:11:01;;;;;;;12.13;6.90;;;2.10;99.50;;;;;;5018923;28;20029;-80
2022/02/08 06:13:27;;;;;;;13.05;7.38;;;2.10;99.10;;;;;;5011770;28;20025;-81
2022/02/08 06:16:00;;;;;;;14.02;7.13;;;2.20;99.00;;;;;;5012147;28;20031;-81
2022/02/08 06:18:31;;;;;;;12.57;6.43;;;2.20;98.70;;;;;;5014300;28;20018;-81
2022/02/08 06:20:58;;;;;;;9.38;7.10;;;2.20;98.30;;;;;;5021304;28;20042;-80
2022/02/08 06:23:24;;;;;;;9.15;4.90;;;2.20;98.30;;;;;;5022733;28;20075;-81
2022/02/08 06:25:50;;;;;;;10.43;5.40;;;2.10;97.70;;;;;;5015481;28;20391;-81
2022/02/08 06:28:17;;;;;;;8.25;5.90;;;2.10;97.20;;;;;;5013815;28;20037;-79
2022/02/08 06:30:45;;;;;;;11.27;6.93;;;2.10;96.90;;;;;;4998392;28;20030;-80
2022/02/08 06:33:13;;;;;;;8.98;6.07;;;2.10;97.00;;;;;;5015663;28;20184;-80
2022/02/08 06:35:39;;;;;;;9.68;5.78;;;2.20;96.90;;;;;;4994277;28;20121;-81
2022/02/08 06:38:08;;;;;;;10.23;6.43;;;2.20;97.00;;;;;;5012570;28;20026;-78
2022/02/08 06:40:36;;;;;;;13.55;6.65;;;2.30;96.80;;;;;;5015402;28;20041;-80
2022/02/08 06:43:03;;;;;;;12.77;5.72;;;2.20;96.70;;;;;;5015678;28;20025;-81
2022/02/08 06:45:30;;;;;;;6.88;5.20;;;2.30;96.70;;;;;;5013981;28;20117;-80
2022/02/08 06:47:55;;;;;;;15.27;7.10;;;2.30;96.40;;;;;;5015301;28;20034;-79
2022/02/08 06:50:21;;;;;;;9.57;5.60;;;2.30;96.30;;;;;;4997830;28;20073;-81
2022/02/08 06:52:48;;;;;;;10.32;5.88;;;2.30;96.30;;;;;;5015287;28;20033;-80
2022/02/08 06:55:14;;;;;;;9.70;6.25;;;2.30;96.10;;;;;;5024383;28;20111;-82
2022/02/08 07:00:42;;;;;;;9.05;5.38;;;2.30;96.00;;;;;;5025872;28;20034;-81
2022/02/08 07:03:13;;;;;;;6.38;4.78;;;2.30;95.60;;;;;;5016826;28;20025;-76
2022/02/08 07:05:40;;;;;;;7.05;4.13;;;2.30;95.50;;;;;;5024406;28;20025;-82
2022/02/08 07:08:07;;;;;;;9.57;5.80;;;2.30;95.50;;;;;;4999008;28;20030;-82
2022/02/08 07:10:34;;;;;;;8.18;5.13;;;2.30;95.50;;;;;;5002945;28;20083;-81
2022/02/08 07:13:00;;;;;;;6.13;5.20;;;2.40;95.40;;;;;;5014808;28;20037;-80
2022/02/08 07:15:26;;;;;;;7.33;5.00;;;2.40;95.40;;;;;;5014858;28;20444;-81
2022/02/08 07:17:52;;;;;;;10.40;6.07;;;2.50;95.40;;;;;;5015063;28;20260;-83
2022/02/08 07:20:19;;;;;;;10.18;6.03;;;2.50;95.30;;;;;;4997561;28;20084;-84
2022/02/08 07:22:45;;;;;;;7.95;5.72;;;2.50;95.30;;;;;;5014159;28;20018;-83
2022/02/08 07:25:12;;;;;;;11.48;5.72;;;2.50;95.00;;;;;;4996812;28;20435;-84
2022/02/08 07:27:39;;;;;;;8.60;4.80;;;2.40;94.70;;;;;;5014640;28;20036;-83
2022/02/08 07:30:10;;;;;;;9.45;5.07;;;2.40;94.70;;;;;;4996947;28;20034;-82
2022/02/08 07:32:38;;;;;;;8.85;5.30;;;2.50;94.90;;;;;;4996976;28;20141;-84
2022/02/08 07:42:58;;;;;;;7.45;5.22;;;2.50;95.40;;;;;;5014830;28;20018;-83
2022/02/08 07:45:24;;;;;;;10.80;5.97;;;2.50;95.50;;;;;;5014647;28;20037;-83
2022/02/08 07:47:53;;;;;;;12.57;6.88;;;2.60;95.50;;;;;;5014757;28;20423;-83
2022/02/08 07:50:20;;;;;;;18.88;6.72;;;2.60;95.30;;;;;;5013635;28;20080;-84
2022/02/08 07:52:46;;;;;;;9.23;6.35;;;2.60;95.50;;;;;;5013554;28;20395;-83
2022/02/08 07:55:12;;;;;;;7.93;4.78;;;2.60;95.40;;;;;;4996846;28;20037;-83
2022/02/08 07:57:38;;;;;;;12.00;5.00;;;2.60;95.50;;;;;;5014327;28;20033;-83
2022/02/08 08:00:05;;;;;;;8.60;4.97;;;2.60;95.40;;;;;;5034006;28;20033;-82
2022/02/08 08:02:31;;;;;;;7.07;4.60;;;2.60;95.70;;;;;;5033926;28;20035;-85
2022/02/08 08:04:57;;;;;;;8.00;5.82;;;2.60;95.30;;;;;;5034212;28;20475;-82
2022/02/08 08:07:24;;;;;;;9.00;5.80;;;2.60;95.20;;;;;;5034319;28;20068;-83
2022/02/08 08:09:50;;;;;;;8.65;5.80;;;2.60;95.10;;;;;;5015958;28;20049;-83
2022/02/08 08:12:16;;;;;;;8.18;4.68;;;2.70;95.20;;;;;;5033940;28;20100;-84
2022/02/08 08:14:43;;;;;;;6.32;4.60;;;2.70;94.80;;;;;;5017843;28;20121;-83
2022/02/08 08:19:53;;;;;;;8.18;5.68;;;2.60;94.80;;;;;;5016297;28;20025;-83
2022/02/08 08:22:19;;;;;;;7.38;5.18;;;2.70;95.00;;;;;;5021367;28;20527;-81
2022/02/08 08:24:45;;;;;;;10.63;5.53;;;2.80;94.80;;;;;;5000072;28;20080;-84
2022/02/08 08:27:13;;;;;;;5.70;4.17;;;2.80;94.70;;;;;;5016841;28;20025;-84
2022/02/08 08:29:40;;;;;;;10.07;4.97;;;2.90;94.50;;;;;;5013264;28;20041;-84
2022/02/08 08:32:06;;;;;;;9.05;4.65;;;2.90;94.30;;;;;;5031447;28;20053;-83
2022/02/08 08:34:33;;;;;;;8.82;5.07;;;2.90;94.00;;;;;;5027207;28;20172;-84
2022/02/08 08:36:59;;;;;;;6.40;4.72;;;2.90;93.90;;;;;;5015533;28;20026;-84
2022/02/08 08:39:33;;;;;;;7.30;4.72;;;2.90;94.00;;;;;;5013070;28;20029;-83
2022/02/08 08:52:41;;;;;;;7.13;4.78;;;2.70;93.60;;;;;;4993938;28;20056;-83
2022/02/08 08:55:07;;;;;;;9.00;4.25;;;2.70;93.90;;;;;;4993719;28;20030;-84
2022/02/08 08:57:33;;;;;;;8.27;4.93;;;2.80;93.90;;;;;;5009159;28;20041;-84
2022/02/08 09:00:00;;;;;;;8.07;4.93;;;2.80;93.60;;;;;;4993034;28;20256;-84
2022/02/08 09:02:26;;;;;;;8.60;4.57;;;2.80;93.70;;;;;;4993881;28;20030;-83
2022/02/08 09:04:54;;;;;;;6.55;3.78;;;2.80;93.50;;;;;;4994987;28;20034;-83
2022/02/08 09:07:20;;;;;;;;;;;2.60;93.50;;;;;;5012223;28;20018;-84
2022/02/08 09:09:49;;;;;;;8.45;6.18;;;2.60;93.90;;;;;;5028521;28;19928;-83
2022/02/08 09:14:55;;;;;;;10.18;5.18;;;2.70;93.70;;;;;;5013057;28;20044;-84
2022/02/08 09:31:03;;;;;;;7.63;4.53;;;2.70;93.60;;;;;;4993981;28;20031;-83
2022/02/08 09:33:30;;;;;;;7.50;4.15;;;2.70;94.00;;;;;;5012836;28;20057;-83
2022/02/08 09:35:56;;;;;;;6.18;4.70;;;2.70;93.70;;;;;;4995169;28;20022;-83
2022/02/08 09:38:30;;;;;;;7.60;4.10;;;2.80;93.90;;;;;;5012503;28;20083;-86
2022/02/08 09:40:58;;;;;;;9.50;5.00;;;2.80;93.60;;;;;;5011657;28;20487;-84
2022/02/08 09:43:25;;;;;;;7.18;4.22;;;2.70;93.80;;;;;;5012526;28;20060;-82
2022/02/08 09:45:51;;;;;;;10.65;6.00;;;2.70;93.60;;;;;;5011458;28;20123;-85
2022/02/08 09:48:24;;;;;;;10.25;4.78;;;2.70;93.90;;;;;;5012625;28;20049;-84
2022/02/08 09:50:51;;;;;;;19.08;10.20;;;2.70;93.60;;;;;;4996603;28;20052;-83
2022/02/08 09:53:23;;;;;;;13.10;7.97;;;2.70;93.90;;;;;;5012369;28;20395;-85
2022/02/08 09:55:49;;;;;;;10.70;5.80;;;2.80;93.90;;;;;;5013587;28;20399;-84
2022/02/08 09:58:15;;;;;;;8.18;5.60;;;2.80;93.90;;;;;;5028139;28;20031;-85
2022/02/08 10:00:42;;;;;;;10.52;6.82;;;2.90;93.90;;;;;;5032717;28;20107;-82
2022/02/08 10:03:13;;;;;;;7.60;4.93;;;3.00;94.10;;;;;;5032699;28;20025;-84
2022/02/08 10:05:43;;;;;;;12.18;7.10;;;3.10;93.80;;;;;;5033597;28;20022;-84
2022/02/08 10:08:12;;;;;;;10.63;6.60;;;3.00;93.50;;;;;;5034198;28;20029;-84
2022/02/08 10:10:38;;;;;;;7.55;4.95;;;3.10;93.70;;;;;;5036006;28;20044;-83
2022/02/08 10:23:53;;;;;;;13.38;6.53;;;3.30;92.60;;;;;;5016437;28;20030;-84
2022/02/08 10:26:26;;;;;;;7.63;5.82;;;3.40;92.50;;;;;;5016686;28;20029;-84
2022/02/08 10:28:59;;;;;;;23.52;11.60;;;3.40;92.40;;;;;;5017545;28;20037;-84
2022/02/08 10:31:43;;;;;;;20.08;11.95;;;3.50;92.40;;;;;;5031080;28;20049;-84
2022/02/08 10:40:19;;;;;;;11.80;6.85;;;3.60;91.90;;;;;;5047282;28;20121;-83
2022/02/08 10:42:53;;;;;;;8.30;5.82;;;3.60;91.70;;;;;;5044345;28;20096;-86
2022/02/08 10:45:23;;;;;;;27.95;12.77;;;3.50;91.60;;;;;;5020719;28;20391;-83
2022/02/08 10:48:02;;;;;;;14.65;9.48;;;3.50;91.70;;;;;;5021341;28;20101;-84
2022/02/08 10:50:31;;;;;;;16.52;7.78;;;3.60;91.90;;;;;;5018794;28;20036;-83
2022/02/08 10:52:59;;;;;;;6.78;4.57;;;3.60;91.90;;;;;;5018299;28;20029;-84
2022/02/08 10:55:41;;;;;;;9.93;4.95;;;3.60;91.50;;;;;;5017735;28;20129;-83
2022/02/08 10:58:24;;;;;;;9.55;4.90;;;3.50;91.70;;;;;;5016416;28;20033;-87
2022/02/08 11:03:39;;;;;;;8.02;4.72;;;3.30;91.90;;;;;;5036971;28;20096;-83
2022/02/08 11:09:23;;;;;;;8.70;5.05;;;3.30;92.50;;;;;;5038197;28;20022;-86
2022/02/08 11:14:58;;;;;;;6.70;4.75;;;3.40;92.50;;;;;;5041379;28;20616;-86
2022/02/08 11:23:07;;;;;;;8.63;4.55;;;3.30;92.50;;;;;;5017753;28;20061;-84
2022/02/08 11:25:41;;;;;;;7.68;4.93;;;3.30;92.30;;;;;;5014679;28;20116;-86
2022/02/08 11:28:26;;;;;;;6.25;5.13;;;3.30;92.40;;;;;;5014135;28;20022;-84
2022/02/08 11:47:33;;;;;;;7.65;4.07;;;3.30;92.20;;;;;;5018767;28;20030;-83
2022/02/08 11:55:28;;;;;;;6.10;3.95;;;3.10;92.50;;;;;;5023062;28;20061;-84
2022/02/08 11:58:18;;;;;;;6.55;3.95;;;3.00;92.60;;;;;;5021321;28;20022;-86
2022/02/08 12:00:58;;;;;;;4.40;3.08;;;3.00;92.70;;;;;;5034376;28;20105;-84
2022/02/08 12:09:10;;;;;;;5.15;3.45;;;2.80;93.30;;;;;;5037139;28;20563;-87
2022/02/08 12:28:52;;;;;;;5.32;3.40;;;2.80;93.80;;;;;;5014238;28;20109;-83
2022/02/08 12:36:43;;;;;;;5.55;3.55;;;2.80;93.60;;;;;;5013895;28;20136;-84
2022/02/08 13:05:04;;;;;;;9.65;4.05;;;2.80;93.40;;;;;;5014080;28;20029;-84
2022/02/08 14:06:31;;;;;;;3.85;2.92;;;2.10;94.40;;;;;;5025518;28;20027;-83
2022/02/08 14:09:09;;;;;;;5.93;3.90;;;1.60;95.60;;;;;;5016601;28;20460;-84
2022/02/08 14:14:31;;;;;;;9.68;5.60;;;1.10;98.00;;;;;;5028738;28;20022;-85
2022/02/08 14:17:26;;;;;;;7.38;4.80;;;1.00;98.80;;;;;;4994945;28;20406;-86
2022/02/08 14:19:50;;;;;;;6.43;5.05;;;1.00;99.20;;;;;;5011941;28;20040;-84
2022/02/08 14:22:35;;;;;;;10.57;4.85;;;1.00;99.60;;;;;;4994525;28;20045;-84
2022/02/08 14:30:27;;;;;;;8.15;5.57;;;1.00;99.90;;;;;;5012790;28;20052;-83
2022/02/08 15:08:09;;;;;;;7.35;3.83;;;1.50;98.40;;;;;;5018459;28;20081;-84
2022/02/08 15:13:02;;;;;;;6.80;3.25;;;1.40;98.50;;;;;;5030995;28;20030;-85
2022/02/08 15:17:54;;;;;;;5.60;4.13;;;1.30;98.70;;;;;;5036426;28;20482;-84
2022/02/08 15:20:21;;;;;;;8.32;5.07;;;1.30;98.80;;;;;;5035362;28;20067;-83
2022/02/08 15:22:47;;;;;;;7.05;3.78;;;1.20;98.90;;;;;;5035333;28;20048;-83
2022/02/08 15:25:14;;;;;;;6.38;3.17;;;1.30;98.90;;;;;;5035839;28;20021;-84
2022/02/08 15:27:41;;;;;;;8.98;4.72;;;1.30;99.00;;;;;;5015582;28;20018;-85
2022/02/08 15:30:09;;;;;;;9.50;3.72;;;1.30;99.10;;;;;;5015759;28;20454;-84
2022/02/08 15:32:38;;;;;;;5.13;3.08;;;1.30;99.20;;;;;;5028489;28;20128;-86
2022/02/08 15:35:05;;;;;;;5.25;3.35;;;1.30;99.10;;;;;;5033553;28;20036;-86
2022/02/08 15:37:31;;;;;;;4.30;3.42;;;1.30;99.30;;;;;;5017148;28;20031;-84
2022/02/08 15:39:59;;;;;;;4.43;3.35;;;1.30;99.30;;;;;;5037307;28;20036;-83
2022/02/08 15:42:32;;;;;;;4.72;3.75;;;1.30;99.40;;;;;;5007689;28;20188;-84
2022/02/08 15:45:09;;;;;;;6.30;3.60;;;1.30;99.40;;;;;;5002211;28;20073;-82
2022/02/08 15:47:35;;;;;;;8.25;4.10;;;1.40;99.50;;;;;;5005612;28;20049;-83
2022/02/08 15:50:09;;;;;;;5.07;3.80;;;1.30;99.60;;;;;;5021122;28;20034;-83
2022/02/08 15:53:06;;;;;;;7.03;3.47;;;1.30;99.90;;;;;;5015501;28;20026;-83
2022/02/08 15:56:03;;;;;;;7.13;4.57;;;1.30;99.80;;;;;;5014752;28;20030;-86
2022/02/08 16:00:21;;;;;;;6.95;4.57;;;1.30;99.80;;;;;;5021175;28;20027;-83
2022/02/08 16:07:02;;;;;;;6.90;3.50;;;1.10;99.90;;;;;;5035010;28;20064;-83
2022/02/08 16:12:27;;;;;;;6.28;3.55;;;1.00;99.90;;;;;;5027812;28;20089;-83
2022/02/08 16:32:38;;;;;;;6.57;3.97;;;0.90;99.90;;;;;;5015429;28;20116;-85
2022/02/08 16:59:11;;;;;;;6.28;4.80;;;0.90;99.90;;;;;;5014823;28;20030;-84
2022/02/08 17:01:37;;;;;;;6.32;4.80;;;0.80;99.90;;;;;;4997358;28;20371;-83
2022/02/08 17:04:08;;;;;;;7.10;5.30;;;0.80;99.90;;;;;;5017303;28;20073;-85
2022/02/08 17:06:34;;;;;;;8.73;5.75;;;0.90;99.90;;;;;;5023361;28;20030;-83
2022/02/08 17:11:43;;;;;;;8.45;4.50;;;0.80;99.90;;;;;;5035621;28;20049;-82
2022/02/08 17:46:36;;;;;;;6.20;3.15;;;0.80;99.90;;;;;;5014826;28;20486;-84
2022/02/08 17:49:01;;;;;;;4.15;3.05;;;0.80;99.90;;;;;;5013536;28;20025;-86
2022/02/08 17:51:28;;;;;;;4.72;2.60;;;0.80;99.90;;;;;;5013805;28;20018;-85
2022/02/08 17:53:54;;;;;;;9.27;3.17;;;0.80;99.90;;;;;;5012952;28;20045;-84
2022/02/08 17:56:19;;;;;;;3.38;2.40;;;0.80;99.90;;;;;;5028154;28;20028;-84
2022/02/08 17:58:45;;;;;;;3.70;2.50;;;0.80;99.90;;;;;;5032103;28;20021;-83
2022/02/08 18:01:11;;;;;;;6.65;2.58;;;0.80;99.90;;;;;;5012427;28;20029;-83
2022/02/08 18:03:37;;;;;;;4.13;2.88;;;0.80;99.90;;;;;;5012574;28;20100;-83
2022/02/08 18:06:03;;;;;;;3.92;3.03;;;0.80;99.90;;;;;;5012165;28;20085;-83
2022/02/08 18:08:29;;;;;;;4.53;2.63;;;0.70;99.90;;;;;;5013196;28;20064;-84
2022/02/08 18:10:57;;;;;;;3.85;2.67;;;0.70;99.90;;;;;;5012354;28;20061;-83
2022/02/08 18:13:24;;;;;;;;;;;0.70;99.90;;;;;;4995256;28;20041;-84
2022/02/08 18:15:50;;;;;;;5.57;2.83;;;0.70;99.90;;;;;;5013298;28;19906;-84
2022/02/08 18:18:32;;;;;;;7.32;3.22;;;0.70;99.90;;;;;;5013310;28;20196;-83
2022/02/08 18:21:11;;;;;;;4.80;2.75;;;0.70;99.90;;;;;;4997968;28;20029;-86
2022/02/08 19:07:06;;;;;;;2.60;1.90;;;0.40;99.20;;;;;;5035737;28;20040;-84
2022/02/08 19:17:38;;;;;;;2.70;1.85;;;0.30;98.60;;;;;;5045306;28;20064;-87
2022/02/08 19:20:24;;;;;;;3.03;1.70;;;0.20;98.60;;;;;;5054740;28;20010;-88
2022/02/08 19:22:50;;;;;;;4.68;2.63;;;0.20;98.60;;;;;;5031298;28;20029;-88
2022/02/08 19:25:17;;;;;;;4.50;2.30;;;0.30;98.70;;;;;;5042476;28;20070;-87
2022/02/08 19:27:44;;;;;;;3.72;2.45;;;0.30;98.70;;;;;;5036524;28;20021;-90
2022/02/08 19:30:12;;;;;;;2.85;2.00;;;0.30;98.60;;;;;;5036408;28;20042;-90
2022/02/08 19:32:38;;;;;;;4.60;2.25;;;0.30;98.70;;;;;;5015690;28;20048;-91
2022/02/08 19:35:05;;;;;;;2.45;1.92;;;0.30;98.60;;;;;;5037316;28;20026;-86
2022/02/08 19:37:31;;;;;;;5.00;2.13;;;0.30;98.50;;;;;;5014410;28;20094;-88
2022/02/08 19:39:57;;;;;;;2.33;1.85;;;0.30;98.50;;;;;;5023470;28;20633;-82
2022/02/08 19:42:23;;;;;;;2.72;1.90;;;0.40;98.50;;;;;;5013696;28;20014;-83
2022/02/08 19:44:56;;;;;;;5.82;2.78;;;0.40;98.40;;;;;;5014692;28;20053;-86
2022/02/08 19:47:26;;;;;;;2.75;1.98;;;0.40;98.30;;;;;;5022651;28;20088;-85
2022/02/08 19:49:52;;;;;;;3.83;2.20;;;0.50;98.20;;;;;;5015553;28;20123;-85
2022/02/08 19:52:21;;;;;;;2.38;2.05;;;0.50;98.20;;;;;;5016941;28;20040;-85
2022/02/08 19:57:39;;;;;;;2.70;2.17;;;0.50;98.20;;;;;;5014132;28;20025;-86
2022/02/08 20:00:11;;;;;;;4.35;2.47;;;0.60;98.10;;;;;;5025248;28;20026;-88
2022/02/08 20:02:43;;;;;;;2.90;2.28;;;0.50;98.30;;;;;;5022658;28;20024;-87
2022/02/08 20:05:11;;;;;;;4.15;2.45;;;0.60;97.90;;;;;;5030954;28;20061;-86
2022/02/08 20:07:37;;;;;;;6.65;2.83;;;0.60;97.80;;;;;;5016214;28;20013;-82
2022/02/08 20:10:03;;;;;;;5.75;2.85;;;0.60;97.80;;;;;;5014464;28;20489;-83
2022/02/08 20:12:29;;;;;;;4.30;3.28;;;0.60;97.80;;;;;;5016530;28;20014;-84
2022/02/08 20:14:56;;;;;;;3.97;3.28;;;0.60;97.60;;;;;;5018400;28;20419;-85
2022/02/08 20:17:22;;;;;;;4.23;2.83;;;0.60;97.60;;;;;;5017624;28;20029;-84
2022/02/08 20:19:49;;;;;;;4.72;3.20;;;0.70;97.70;;;;;;5021546;28;20472;-85
2022/02/08 20:22:15;;;;;;;3.65;2.65;;;0.70;97.70;;;;;;5014627;28;20030;-84
2022/02/08 20:24:41;;;;;;;3.28;2.35;;;0.80;97.60;;;;;;5026664;28;20117;-85
2022/02/08 20:27:33;;;;;;;5.50;3.08;;;0.80;97.60;;;;;;5033371;28;20025;-87
2022/02/08 20:29:57;;;;;;;6.45;2.70;;;0.80;97.40;;;;;;5034815;28;20121;-87
2022/02/08 20:32:23;;;;;;;5.28;3.00;;;0.80;97.30;;;;;;5018050;28;20117;-86
2022/02/08 20:34:49;;;;;;;4.32;3.33;;;0.70;97.30;;;;;;5014495;28;20026;-84
2022/02/08 20:37:15;;;;;;;3.53;2.70;;;0.70;97.30;;;;;;4996757;28;20029;-85
2022/02/08 20:39:41;;;;;;;2.72;2.10;;;0.80;97.50;;;;;;5013262;28;20026;-86
2022/02/08 20:42:07;;;;;;;5.70;3.40;;;0.80;97.40;;;;;;5014483;28;20053;-88
2022/02/08 20:44:37;;;;;;;3.88;1.92;;;0.80;97.30;;;;;;5013187;28;20092;-84
2022/02/08 20:47:18;;;;;;;3.60;2.40;;;0.80;97.10;;;;;;5016493;28;20577;-84
2022/02/08 20:49:45;;;;;;;3.60;2.80;;;0.80;96.90;;;;;;5015368;28;20033;-86
2022/02/08 20:52:11;;;;;;;4.28;2.88;;;0.70;96.80;;;;;;5015734;28;20479;-86
2022/02/08 20:54:39;;;;;;;4.55;2.97;;;0.70;96.90;;;;;;5017898;28;20025;-87
2022/02/08 20:57:11;;;;;;;2.17;1.80;;;0.80;96.90;;;;;;5033979;28;20060;-84
2022/02/08 20:59:37;;;;;;;6.30;2.45;;;0.80;96.80;;;;;;5033376;28;20029;-84
2022/02/08 21:02:04;;;;;;;4.13;1.80;;;0.80;96.80;;;;;;5015555;28;20486;-83
2022/02/08 21:04:41;;;;;;;4.35;2.40;;;0.80;96.60;;;;;;5033705;28;20036;-83
2022/02/08 21:07:07;;;;;;;2.05;1.70;;;0.80;96.60;;;;;;5013641;28;20100;-84
2022/02/08 21:09:33;;;;;;;3.05;2.40;;;0.70;96.50;;;;;;5013802;28;20084;-81
2022/02/08 21:12:16;;;;;;;3.58;2.17;;;0.70;96.60;;;;;;5019867;28;20025;-84
2022/02/08 21:14:44;;;;;;;3.90;2.40;;;0.70;96.70;;;;;;5021179;28;20391;-82
2022/02/08 21:17:13;;;;;;;5.40;2.85;;;0.70;96.30;;;;;;5019164;28;20032;-83
2022/02/08 21:19:40;;;;;;;7.80;3.65;;;0.60;96.30;;;;;;4997614;28;20029;-84
2022/02/08 21:22:05;;;;;;;5.28;3.00;;;0.70;96.40;;;;;;5014533;28;20029;-85
2022/02/08 21:24:33;;;;;;;5.32;3.53;;;0.70;96.40;;;;;;5020676;28;20027;-81
2022/02/08 21:27:02;;;;;;;5.47;3.60;;;0.70;96.40;;;;;;5023941;28;20483;-81
2022/02/08 21:54:18;;;;;;;4.85;2.10;;;0.70;95.50;;;;;;5013093;28;20084;-83